createdAt,value
2018-11-23T00:01:29.677Z,97413.86
2018-11-23T00:03:57.202Z,97427.20
2018-11-23T00:06:24.651Z,97428.36
2018-11-23T00:08:52.064Z,97433.73
2018-11-23T00:11:19.491Z,97438.22
2018-11-23T00:13:47.020Z,97442.91
2018-11-23T00:16:14.439Z,97438.33
2018-11-23T00:18:41.873Z,97432.89
2018-11-23T00:21:09.457Z,97441.80
2018-11-23T00:23:36.901Z,97442.91
2018-11-23T00:26:04.312Z,97434.61
2018-11-23T00:28:31.736Z,97433.32
2018-11-23T00:30:59.389Z,97433.88
2018-11-23T00:33:26.828Z,97429.50
2018-11-23T00:35:54.244Z,97427.31
2018-11-23T00:38:21.696Z,97428.16
2018-11-23T00:40:49.247Z,97429.41
2018-11-23T00:43:16.781Z,97414.69
2018-11-23T00:45:44.197Z,97416.87
2018-11-23T00:48:11.704Z,97410.27
2018-11-23T00:50:39.103Z,97407.29
2018-11-23T00:53:06.534Z,97410.11
2018-11-23T00:55:33.950Z,97418.77
2018-11-23T00:58:01.413Z,97427.38
2018-11-23T01:00:28.898Z,97428.26
2018-11-23T01:02:56.357Z,97418.66
2018-11-23T01:05:24.296Z,97422.16
2018-11-23T01:07:51.758Z,97422.16
2018-11-23T01:10:19.193Z,97420.33
2018-11-23T01:12:46.898Z,97412.25
2018-11-23T01:15:14.290Z,97417.87
2018-11-23T01:17:41.695Z,97409.33
2018-11-23T01:20:09.129Z,97411.36
2018-11-23T01:22:36.544Z,97408.11
2018-11-23T01:25:03.953Z,97414.64
2018-11-23T01:27:31.451Z,97418.59
2018-11-23T01:29:58.912Z,97411.66
2018-11-23T01:32:26.334Z,97422.09
2018-11-23T01:34:53.770Z,97416.34
2018-11-23T01:37:21.230Z,97415.50
2018-11-23T01:39:48.674Z,97419.27
2018-11-23T01:42:16.076Z,97416.32
2018-11-23T01:44:43.483Z,97403.98
2018-11-23T01:47:10.904Z,97400.08
2018-11-23T01:49:38.324Z,97391.64
2018-11-23T01:52:05.738Z,97390.76
2018-11-23T01:54:33.211Z,97391.18
2018-11-23T01:57:01.331Z,97389.61
2018-11-23T01:59:28.738Z,97390.82
2018-11-23T02:01:56.169Z,97385.39
2018-11-23T02:04:23.580Z,97381.11
2018-11-23T02:06:50.994Z,97370.53
2018-11-23T02:09:18.420Z,97380.85
2018-11-23T02:11:45.820Z,97380.39
2018-11-23T02:14:13.237Z,97384.43
2018-11-23T02:16:40.880Z,97382.19
2018-11-23T02:19:08.310Z,97376.55
2018-11-23T02:21:35.731Z,97388.59
2018-11-23T02:24:03.150Z,97383.23
2018-11-23T02:26:30.594Z,97376.10
2018-11-23T02:28:58.002Z,97373.75
2018-11-23T02:31:25.433Z,97379.19
2018-11-23T02:33:52.895Z,97380.59
2018-11-23T02:36:20.490Z,97376.14
2018-11-23T02:38:47.898Z,97366.15
2018-11-23T02:41:15.879Z,97357.14
2018-11-23T02:43:43.276Z,97354.00
2018-11-23T02:46:10.705Z,97354.66
2018-11-23T02:48:38.162Z,97346.59
2018-11-23T02:51:05.864Z,97330.96
2018-11-23T02:53:33.291Z,97329.50
2018-11-23T02:56:00.760Z,97336.07
2018-11-23T02:58:28.182Z,97337.15
2018-11-23T03:00:55.575Z,97336.64
2018-11-23T03:03:23.140Z,97341.78
2018-11-23T03:05:50.573Z,97344.13
2018-11-23T03:08:18.460Z,97342.73
2018-11-23T03:10:45.876Z,97346.00
2018-11-23T03:13:13.286Z,97342.73
2018-11-23T03:15:40.799Z,97340.84
2018-11-23T03:18:08.215Z,97336.58
2018-11-23T03:20:35.640Z,97337.78
2018-11-23T03:23:03.607Z,97335.97
2018-11-23T03:25:31.030Z,97339.86
2018-11-23T03:27:58.435Z,97336.33
2018-11-23T03:30:25.901Z,97339.86
2018-11-23T03:32:53.309Z,97339.67
2018-11-23T03:35:20.703Z,97335.86
2018-11-23T03:37:48.135Z,97333.57
2018-11-23T03:40:15.555Z,97333.23
2018-11-23T03:42:42.967Z,97340.02
2018-11-23T03:45:10.493Z,97346.44
2018-11-23T03:47:37.920Z,97339.77
2018-11-23T03:50:05.342Z,97323.13
2018-11-23T03:52:32.761Z,97318.61
2018-11-23T03:55:00.194Z,97317.14
2018-11-23T03:57:27.740Z,97322.29
2018-11-23T03:59:55.155Z,97323.97
2018-11-23T04:02:22.568Z,97321.25
2018-11-23T04:04:50.072Z,97318.89
2018-11-23T04:07:17.558Z,97322.49
2018-11-23T04:09:44.964Z,97325.20
2018-11-23T04:12:12.360Z,97331.30
2018-11-23T04:14:39.766Z,97318.33
2018-11-23T04:17:07.196Z,97313.28
2018-11-23T04:19:34.608Z,97321.09
2018-11-23T04:22:02.021Z,97325.88
2018-11-23T04:24:29.423Z,97307.48
2018-11-23T04:26:56.827Z,97296.44
2018-11-23T04:29:24.256Z,97306.22
2018-11-23T04:31:51.635Z,97307.91
2018-11-23T04:34:19.227Z,97317.27
2018-11-23T04:36:46.628Z,97323.03
2018-11-23T04:39:14.967Z,97321.98
2018-11-23T04:41:46.424Z,97323.81
2018-11-23T04:44:09.815Z,97330.75
2018-11-23T04:46:37.315Z,97336.18
2018-11-23T04:49:04.894Z,97337.94
2018-11-23T04:51:32.927Z,97338.58
2018-11-23T04:54:00.519Z,97350.86
2018-11-23T04:56:27.977Z,97345.20
2018-11-23T04:58:55.387Z,97346.71
2018-11-23T05:01:22.805Z,97342.00
2018-11-23T05:03:50.228Z,97342.73
2018-11-23T05:06:17.659Z,97335.33
2018-11-23T05:08:45.068Z,97333.36
2018-11-23T05:11:12.473Z,97323.48
2018-11-23T05:13:39.878Z,97313.02
2018-11-23T05:16:07.286Z,97311.77
2018-11-23T05:18:34.711Z,97300.87
2018-11-23T05:21:02.111Z,97287.84
2018-11-23T05:23:29.617Z,97289.70
2018-11-23T05:25:57.230Z,97302.76
2018-11-23T05:28:24.847Z,97294.14
2018-11-23T05:30:52.320Z,97290.72
2018-11-23T05:33:19.732Z,97285.36
2018-11-23T05:35:48.151Z,97292.07
2018-11-23T05:38:15.596Z,97290.58
2018-11-23T05:40:43.022Z,97286.50
2018-11-23T05:43:10.449Z,97285.72
2018-11-23T05:45:37.854Z,97281.02
2018-11-23T05:48:05.273Z,97282.59
2018-11-23T05:50:32.733Z,97289.47
2018-11-23T05:53:00.143Z,97283.83
2018-11-23T05:55:27.541Z,97291.33
2018-11-23T05:57:54.955Z,97290.41
2018-11-23T06:00:22.374Z,97284.25
2018-11-23T06:02:49.889Z,97290.16
2018-11-23T06:05:17.735Z,97295.66
2018-11-23T06:07:45.287Z,97281.79
2018-11-23T06:10:12.713Z,97278.72
2018-11-23T06:12:40.119Z,97293.01
2018-11-23T06:15:07.578Z,97294.72
2018-11-23T06:17:35.004Z,97292.76
2018-11-23T06:20:02.424Z,97295.78
2018-11-23T06:22:30.063Z,97297.63
2018-11-23T06:24:57.483Z,97296.02
2018-11-23T06:27:24.878Z,97296.94
2018-11-23T06:29:52.900Z,97293.50
2018-11-23T06:32:20.350Z,97297.30
2018-11-23T06:34:47.809Z,97289.33
2018-11-23T06:37:15.270Z,97277.98
2018-11-23T06:39:42.685Z,97281.72
2018-11-23T06:42:10.103Z,97290.32
2018-11-23T06:44:37.531Z,97303.80
2018-11-23T06:47:04.938Z,97298.88
2018-11-23T06:49:32.372Z,97288.47
2018-11-23T06:51:59.770Z,97287.84
2018-11-23T06:54:27.202Z,97288.53
2018-11-23T06:56:55.733Z,97278.92
2018-11-23T06:59:23.200Z,97266.89
2018-11-23T07:01:50.620Z,97266.96
2018-11-23T07:04:18.052Z,97269.01
2018-11-23T07:06:45.484Z,97280.91
2018-11-23T07:09:13.763Z,97274.91
2018-11-23T07:11:41.221Z,97271.06
2018-11-23T07:14:08.670Z,97282.00
2018-11-23T07:16:36.164Z,97282.78
2018-11-23T07:19:03.587Z,97283.34
2018-11-23T07:21:31.039Z,97277.92
2018-11-23T07:23:58.472Z,97284.44
2018-11-23T07:26:26.480Z,97296.22
2018-11-23T07:28:53.922Z,97295.84
2018-11-23T07:31:21.402Z,97307.83
2018-11-23T07:33:48.818Z,97301.84
2018-11-23T07:36:16.270Z,97299.25
2018-11-23T07:38:43.785Z,97309.48
2018-11-23T07:41:22.976Z,97297.42
2018-11-23T07:43:50.535Z,97295.81
2018-11-23T07:46:18.084Z,97306.25
2018-11-23T07:48:45.548Z,97306.92
2018-11-23T07:51:13.019Z,97287.52
2018-11-23T07:53:40.436Z,97285.07
2018-11-23T07:56:07.822Z,97289.36
2018-11-23T07:58:35.580Z,97296.63
2018-11-23T08:01:04.584Z,97299.18
2018-11-23T08:03:32.731Z,97294.49
2018-11-23T08:06:01.089Z,97284.70
2018-11-23T08:08:28.486Z,97286.11
2018-11-23T08:10:55.346Z,97288.37
2018-11-23T08:13:23.612Z,97281.59
2018-11-23T08:15:51.023Z,97272.55
2018-11-23T08:18:18.468Z,97273.21
2018-11-23T08:20:45.858Z,97273.37
2018-11-23T08:23:13.246Z,97276.31
2018-11-23T08:25:40.670Z,97264.98
2018-11-23T08:28:08.098Z,97261.27
2018-11-23T08:30:35.527Z,97267.27
2018-11-23T08:33:02.936Z,97273.52
2018-11-23T08:35:30.400Z,97276.53
2018-11-23T08:37:57.927Z,97268.48
2018-11-23T08:40:25.463Z,97273.44
2018-11-23T08:42:52.849Z,97270.70
2018-11-23T08:45:20.271Z,97278.92
2018-11-23T08:47:47.755Z,97267.61
2018-11-23T08:50:15.207Z,97261.96
2018-11-23T08:52:42.626Z,97259.71
2018-11-23T08:55:10.110Z,97247.14
2018-11-23T08:57:37.550Z,97242.63
2018-11-23T09:00:04.963Z,97248.08
2018-11-23T09:02:32.390Z,97240.18
2018-11-23T09:04:59.774Z,97241.45
2018-11-23T09:07:27.199Z,97240.26
2018-11-23T09:09:54.622Z,97227.44
2018-11-23T09:12:22.165Z,97233.30
2018-11-23T09:14:49.776Z,97234.14
2018-11-23T09:17:17.262Z,97233.85
2018-11-23T09:19:44.701Z,97224.77
2018-11-23T09:22:12.121Z,97223.34
2018-11-23T09:24:39.525Z,97215.91
2018-11-23T09:27:07.063Z,97219.25
2018-11-23T09:29:35.153Z,97212.50
2018-11-23T09:32:02.549Z,97209.95
2018-11-23T09:34:29.966Z,97219.61
2018-11-23T09:36:57.386Z,97218.08
2018-11-23T09:39:24.818Z,97212.43
2018-11-23T09:41:52.223Z,97205.48
2018-11-23T09:44:19.634Z,97210.23
2018-11-23T09:46:47.047Z,97206.97
2018-11-23T09:49:14.600Z,97199.26
2018-11-23T09:51:42.148Z,97200.20
2018-11-23T09:54:09.542Z,97200.27
2018-11-23T09:56:37.170Z,97197.97
2018-11-23T09:59:04.689Z,97198.09
2018-11-23T10:01:32.130Z,97201.95
2018-11-23T10:03:59.605Z,97200.59
2018-11-23T10:06:27.145Z,97194.36
2018-11-23T10:08:54.449Z,97195.59
2018-11-23T10:11:21.857Z,97189.01
2018-11-23T10:13:49.271Z,97190.67
2018-11-23T10:16:16.735Z,97185.03
2018-11-23T10:18:44.350Z,97181.08
2018-11-23T10:21:11.759Z,97185.16
2018-11-23T10:23:39.166Z,97182.91
2018-11-23T10:26:06.799Z,97180.53
2018-11-23T10:28:34.284Z,97173.28
2018-11-23T10:31:01.682Z,97174.06
2018-11-23T10:33:29.427Z,97165.98
2018-11-23T10:35:56.857Z,97160.34
2018-11-23T10:38:25.041Z,97157.98
2018-11-23T10:40:52.430Z,97150.98
2018-11-23T10:43:19.843Z,97139.45
2018-11-23T10:45:48.146Z,97139.52
2018-11-23T10:48:15.632Z,97143.34
2018-11-23T10:50:43.235Z,97148.19
2018-11-23T10:53:10.631Z,97135.59
2018-11-23T10:55:38.229Z,97134.32
2018-11-23T10:58:06.424Z,97118.39
2018-11-23T11:00:33.850Z,97109.72
2018-11-23T11:03:01.274Z,97112.30
2018-11-23T11:05:28.829Z,97118.35
2018-11-23T11:07:56.291Z,97124.66
2018-11-23T11:10:23.905Z,97118.13
2018-11-23T11:12:51.542Z,97119.42
2018-11-23T11:15:18.986Z,97105.93
2018-11-23T11:17:46.764Z,97106.56
2018-11-23T11:20:14.230Z,97107.23
2018-11-23T11:22:41.633Z,97097.28
2018-11-23T11:25:09.190Z,97108.45
2018-11-23T11:27:36.631Z,97088.44
2018-11-23T11:30:04.090Z,97082.70
2018-11-23T11:32:31.511Z,97077.01
2018-11-23T11:34:58.919Z,97072.20
2018-11-23T11:37:26.393Z,97060.72
2018-11-23T11:39:53.846Z,97065.61
2018-11-23T11:42:21.283Z,97058.66
2018-11-23T11:44:49.303Z,97054.92
2018-11-23T11:47:16.752Z,97063.91
2018-11-23T11:49:44.224Z,97056.63
2018-11-23T11:52:11.646Z,97062.45
2018-11-23T11:54:39.070Z,97058.09
2018-11-23T11:57:06.513Z,97048.69
2018-11-23T11:59:33.926Z,97045.43
2018-11-23T12:02:01.453Z,97045.15
2018-11-23T12:04:28.855Z,97038.69
2018-11-23T12:06:56.270Z,97043.34
2018-11-23T12:09:23.728Z,97043.82
2018-11-23T12:11:51.146Z,97047.08
2018-11-23T12:14:19.030Z,97038.59
2018-11-23T12:16:46.485Z,97038.02
2018-11-23T12:19:14.646Z,97037.02
2018-11-23T12:21:42.220Z,97029.88
2018-11-23T12:24:09.738Z,97030.88
2018-11-23T12:26:37.252Z,97027.23
2018-11-23T12:29:04.756Z,97031.28
2018-11-23T12:31:32.141Z,97026.08
2018-11-23T12:33:59.623Z,97027.46
2018-11-23T12:36:27.130Z,97031.46
2018-11-23T12:38:54.667Z,97028.73
2018-11-23T12:41:22.082Z,97028.98
2018-11-23T12:43:49.533Z,97028.73
2018-11-23T12:46:16.971Z,97028.40
2018-11-23T12:48:44.442Z,97023.75
2018-11-23T12:51:11.870Z,97019.63
2018-11-23T12:53:39.348Z,97013.97
2018-11-23T12:56:07.011Z,97006.31
2018-11-23T12:58:36.043Z,97012.13
2018-11-23T13:01:03.496Z,97008.03
2018-11-23T13:03:31.056Z,97006.20
2018-11-23T13:05:58.477Z,97003.47
2018-11-23T13:08:25.922Z,97001.91
2018-11-23T13:10:53.423Z,96981.35
2018-11-23T13:13:20.881Z,96982.50
2018-11-23T13:15:48.275Z,96992.14
2018-11-23T13:18:15.749Z,96981.92
2018-11-23T13:20:43.182Z,96971.15
2018-11-23T13:23:10.860Z,96970.34
2018-11-23T13:25:38.275Z,96965.13
2018-11-23T13:28:06.617Z,96965.27
2018-11-23T13:30:34.061Z,96966.59
2018-11-23T13:33:01.498Z,96960.05
2018-11-23T13:35:28.914Z,96957.30
2018-11-23T13:37:56.324Z,96958.80
2018-11-23T13:40:23.817Z,96961.84
2018-11-23T13:42:52.148Z,96966.82
2018-11-23T13:45:19.706Z,96955.27
2018-11-23T13:47:47.162Z,96958.23
2018-11-23T13:50:14.591Z,96961.04
2018-11-23T13:52:42.003Z,96959.53
2018-11-23T13:55:10.451Z,96958.67
2018-11-23T13:57:37.884Z,96949.14
2018-11-23T14:00:05.395Z,96948.28
2018-11-23T14:02:32.918Z,96952.50
2018-11-23T14:05:00.325Z,96946.45
2018-11-23T14:07:27.731Z,96945.03
2018-11-23T14:09:55.212Z,96940.12
2018-11-23T14:12:22.638Z,96930.34
2018-11-23T14:14:50.040Z,96914.39
2018-11-23T14:17:17.491Z,96919.33
2018-11-23T14:19:45.115Z,96915.08
2018-11-23T14:22:12.506Z,96908.88
2018-11-23T14:24:39.931Z,96902.77
2018-11-23T14:27:07.375Z,96903.11
2018-11-23T14:29:34.919Z,96900.50
2018-11-23T14:32:02.348Z,96894.39
2018-11-23T14:34:29.739Z,96890.24
2018-11-23T14:36:58.155Z,96889.49
2018-11-23T14:39:25.578Z,96890.38
2018-11-23T14:41:53.693Z,96889.20
2018-11-23T14:44:21.157Z,96878.01
2018-11-23T14:46:48.668Z,96880.98
2018-11-23T14:49:16.077Z,96884.10
2018-11-23T14:51:43.480Z,96881.35
2018-11-23T14:54:10.929Z,96881.94
2018-11-23T14:56:38.697Z,96883.87
2018-11-23T14:59:06.109Z,96881.05
2018-11-23T15:01:33.566Z,96875.05
2018-11-23T15:04:00.959Z,96865.92
2018-11-23T15:06:28.451Z,96861.86
2018-11-23T15:08:55.892Z,96861.02
2018-11-23T15:11:23.301Z,96860.48
2018-11-23T15:13:50.802Z,96859.31
2018-11-23T15:16:18.244Z,96870.88
2018-11-23T15:18:45.943Z,96865.61
2018-11-23T15:21:13.330Z,96850.36
2018-11-23T15:23:41.488Z,96834.70
2018-11-23T15:26:08.965Z,96827.66
2018-11-23T15:28:36.412Z,96814.88
2018-11-23T15:31:03.821Z,96822.97
2018-11-23T15:33:31.241Z,96813.34
2018-11-23T15:35:58.631Z,96806.11
2018-11-23T15:38:26.094Z,96794.45
2018-11-23T15:40:53.530Z,96797.61
2018-11-23T15:43:20.997Z,96786.76
2018-11-23T15:45:48.526Z,96778.63
2018-11-23T15:48:15.960Z,96785.41
2018-11-23T15:50:43.386Z,96782.48
2018-11-23T15:53:10.791Z,96782.61
2018-11-23T15:55:38.564Z,96782.88
2018-11-23T15:58:05.672Z,96789.72
2018-11-23T16:00:34.591Z,96788.34
2018-11-23T16:03:02.043Z,96788.84
2018-11-23T16:05:29.597Z,96784.52
2018-11-23T16:07:57.066Z,96778.36
2018-11-23T16:10:24.488Z,96778.36
2018-11-23T16:12:51.919Z,96781.91
2018-11-23T16:15:20.556Z,96776.74
2018-11-23T16:17:48.036Z,96772.84
2018-11-23T16:20:15.562Z,96768.24
2018-11-23T16:22:43.015Z,96771.87
2018-11-23T16:25:10.404Z,96774.81
2018-11-23T16:27:37.859Z,96773.05
2018-11-23T16:30:05.281Z,96764.59
2018-11-23T16:32:32.672Z,96769.81
2018-11-23T16:35:00.182Z,96762.50
2018-11-23T16:37:27.706Z,96774.71
2018-11-23T16:39:56.058Z,96777.34
2018-11-23T16:42:23.486Z,96769.97
2018-11-23T16:44:50.881Z,96770.14
2018-11-23T16:47:18.332Z,96769.55
2018-11-23T16:49:45.763Z,96762.23
2018-11-23T16:52:13.346Z,96754.95
2018-11-23T16:54:40.762Z,96767.92
2018-11-23T16:57:08.238Z,96758.03
2018-11-23T16:59:35.715Z,96755.58
2018-11-23T17:02:04.016Z,96765.73
2018-11-23T17:04:31.446Z,96762.37
2018-11-23T17:06:59.509Z,96763.34
2018-11-23T17:09:26.918Z,96756.38
2018-11-23T17:11:54.332Z,96760.36
2018-11-23T17:14:21.855Z,96760.21
2018-11-23T17:16:49.319Z,96753.69
2018-11-23T17:19:16.758Z,96750.12
2018-11-23T17:21:44.180Z,96752.05
2018-11-23T17:24:12.546Z,96750.38
2018-11-23T17:26:40.000Z,96753.69
2018-11-23T17:29:07.538Z,96753.98
2018-11-23T17:31:34.940Z,96751.78
2018-11-23T17:34:02.442Z,96750.95
2018-11-23T17:36:29.841Z,96744.23
2018-11-23T17:38:57.328Z,96740.05
2018-11-23T17:41:24.859Z,96732.05
2018-11-23T17:43:52.291Z,96723.13
2018-11-23T17:46:19.760Z,96722.48
2018-11-23T17:48:47.171Z,96720.29
2018-11-23T17:51:14.640Z,96717.00
2018-11-23T17:53:42.350Z,96712.70
2018-11-23T17:56:10.432Z,96711.95
2018-11-23T17:58:38.461Z,96711.92
2018-11-23T18:01:05.875Z,96715.89
2018-11-23T18:03:33.364Z,96708.19
2018-11-23T18:06:00.800Z,96710.09
2018-11-23T18:08:28.212Z,96705.64
2018-11-23T18:10:55.614Z,96707.41
2018-11-23T18:13:23.048Z,96703.60
2018-11-23T18:15:50.459Z,96698.41
2018-11-23T18:18:17.902Z,96696.56
2018-11-23T18:20:45.473Z,96701.41
2018-11-23T18:23:12.897Z,96702.70
2018-11-23T18:25:40.315Z,96710.16
2018-11-23T18:28:07.733Z,96713.53
2018-11-23T18:30:35.181Z,96718.75
2018-11-23T18:33:03.425Z,96721.50
2018-11-23T18:35:30.918Z,96720.33
2018-11-23T18:37:58.533Z,96728.36
2018-11-23T18:40:25.960Z,96721.92
2018-11-23T18:42:53.721Z,96723.28
2018-11-23T18:45:21.151Z,96714.11
2018-11-23T18:47:48.662Z,96704.16
2018-11-23T18:50:16.915Z,96699.54
2018-11-23T18:52:44.344Z,96699.48
2018-11-23T18:55:17.919Z,96691.04
2018-11-23T18:57:40.263Z,96687.88
2018-11-23T19:00:07.720Z,96686.45
2018-11-23T19:02:35.784Z,96677.62
2018-11-23T19:05:03.559Z,96670.63
2018-11-23T19:07:30.976Z,96663.44
2018-11-23T19:09:58.433Z,96658.73
2018-11-23T19:12:25.874Z,96659.55
2018-11-23T19:14:53.310Z,96656.22
2018-11-23T19:17:21.005Z,96660.52
2018-11-23T19:19:48.411Z,96657.50
2018-11-23T19:22:15.917Z,96656.06
2018-11-23T19:24:43.322Z,96643.05
2018-11-23T19:27:11.323Z,96645.90
2018-11-23T19:29:38.729Z,96637.64
2018-11-23T19:32:06.157Z,96639.28
2018-11-23T19:34:40.653Z,96631.72
2018-11-23T19:37:08.050Z,96627.97
2018-11-23T19:39:35.478Z,96624.27
2018-11-23T19:42:02.932Z,96608.16
2018-11-23T19:44:30.332Z,96611.92
2018-11-23T19:46:57.774Z,96611.72
2018-11-23T19:49:25.259Z,96614.97
2018-11-23T19:51:52.719Z,96606.84
2018-11-23T19:54:20.145Z,96607.63
2018-11-23T19:56:47.610Z,96612.10
2018-11-23T19:59:15.054Z,96623.27
2018-11-23T20:01:42.541Z,96623.66
2018-11-23T20:04:10.101Z,96633.00
2018-11-23T20:06:42.734Z,96636.36
2018-11-23T20:09:05.536Z,96638.36
2018-11-23T20:11:32.965Z,96640.00
2018-11-23T20:14:00.456Z,96648.80
2018-11-23T20:16:27.870Z,96658.20
2018-11-23T20:18:55.413Z,96664.14
2018-11-23T20:21:23.828Z,96665.91
2018-11-23T20:23:51.293Z,96669.77
2018-11-23T20:26:18.898Z,96677.37
2018-11-23T20:28:46.304Z,96669.20
2018-11-23T20:31:13.834Z,96680.27
2018-11-23T20:33:41.837Z,96675.02
2018-11-23T20:36:09.298Z,96668.65
2018-11-23T20:38:36.746Z,96673.00
2018-11-23T20:41:05.041Z,96666.44
2018-11-23T20:43:32.462Z,96676.65
2018-11-23T20:46:00.786Z,96672.17
2018-11-23T20:48:28.386Z,96681.53
2018-11-23T20:50:55.814Z,96684.80
2018-11-23T20:53:23.316Z,96694.23
2018-11-23T20:55:50.746Z,96694.17
2018-11-23T20:58:18.581Z,96697.27
2018-11-23T21:00:45.987Z,96698.08
2018-11-23T21:03:13.447Z,96696.55
2018-11-23T21:05:40.876Z,96710.81
2018-11-23T21:08:08.314Z,96713.09
2018-11-23T21:10:35.709Z,96711.66
2018-11-23T21:13:03.158Z,96711.20
2018-11-23T21:15:30.562Z,96709.35
2018-11-23T21:17:58.892Z,96715.97
2018-11-23T21:20:28.213Z,96709.44
2018-11-23T21:22:55.651Z,96711.40
2018-11-23T21:25:23.134Z,96717.66
2018-11-23T21:27:50.640Z,96720.14
2018-11-23T21:30:18.150Z,96729.40
2018-11-23T21:32:45.664Z,96735.58
2018-11-23T21:35:13.119Z,96732.93
2018-11-23T21:37:40.560Z,96743.91
2018-11-23T21:40:07.993Z,96734.94
2018-11-23T21:42:35.421Z,96737.41
2018-11-23T21:45:03.045Z,96747.52
2018-11-23T21:47:30.527Z,96749.76
2018-11-23T21:49:58.032Z,96752.53
2018-11-23T21:52:25.555Z,96758.30
2018-11-23T21:54:53.064Z,96767.60
2018-11-23T21:57:20.478Z,96762.48
2018-11-23T21:59:47.898Z,96758.31
2018-11-23T22:02:15.303Z,96766.91
2018-11-23T22:04:42.718Z,96766.08
2018-11-23T22:07:11.074Z,96777.27
2018-11-23T22:09:38.515Z,96781.67
2018-11-23T22:12:06.008Z,96788.01
2018-11-23T22:14:33.416Z,96785.58
2018-11-23T22:17:00.827Z,96791.45
2018-11-23T22:19:28.433Z,96796.72
2018-11-23T22:21:55.848Z,96791.63
2018-11-23T22:24:23.285Z,96791.77
2018-11-23T22:26:50.723Z,96791.04
2018-11-23T22:29:18.117Z,96789.02
2018-11-23T22:31:45.526Z,96788.84
2018-11-23T22:34:12.998Z,96794.88
2018-11-23T22:36:40.454Z,96790.55
2018-11-23T22:39:08.008Z,96781.77
2018-11-23T22:41:35.414Z,96785.16
2018-11-23T22:44:02.841Z,96788.59
2018-11-23T22:46:30.774Z,96788.86
2018-11-23T22:48:58.175Z,96790.02
2018-11-23T22:51:25.737Z,96785.69
2018-11-23T22:53:53.337Z,96791.03
2018-11-23T22:56:20.751Z,96800.67
2018-11-23T22:58:51.474Z,96805.13
2018-11-23T23:01:15.620Z,96802.47
2018-11-23T23:03:43.078Z,96802.88
2018-11-23T23:06:10.532Z,96810.13
2018-11-23T23:08:38.398Z,96812.27
2018-11-23T23:11:05.811Z,96810.62
2018-11-23T23:13:33.246Z,96813.92
2018-11-23T23:16:00.679Z,96809.27
2018-11-23T23:18:28.106Z,96812.83
2018-11-23T23:20:55.510Z,96811.20
2018-11-23T23:23:23.267Z,96809.53
2018-11-23T23:25:50.724Z,96811.62
2018-11-23T23:28:19.194Z,96814.08
2018-11-23T23:30:46.620Z,96801.31
2018-11-23T23:33:14.036Z,96795.62
2018-11-23T23:35:41.625Z,96791.55
2018-11-23T23:38:09.221Z,96801.77
2018-11-23T23:40:36.778Z,96794.46
2018-11-23T23:43:04.262Z,96812.66
2018-11-23T23:45:31.682Z,96800.77
2018-11-23T23:47:59.066Z,96808.12
2018-11-23T23:50:26.488Z,96811.61
2018-11-23T23:52:53.878Z,96815.76
2018-11-23T23:55:21.611Z,96821.95
2018-11-23T23:57:49.051Z,96824.60
